Leigh, Nebraska
Current Conditions -  °F | °C
As of 6:15 AM on Thursday 29 Jan 2015 (Local Time) from KOLU Reporting Station
Overcast Overcast  
Wind Chill: 24°   Ceiling: 2100
Heat Index: 36°   Visibility: 10mi
Dew Point: 25°   Wind: 22mph
Humidity: 65%   Direction: 340°NNW
Pressure: 30.27"   Gusts: 30mph
Location:  41.71°N, 97.24°W
Report Text: KOLU 291215Z AUTO 34019G26KT 10SM OVC021 02/M04 A3027 RMK AO1
Loading
Personal Weather Stations






























Interactive Weather Map New forecast layout! Learn more

10-Day Weather Forecast

Advertisements
Track Severe Weather on mobile